Jonesboro, Oregon
Current Conditions -  °F | °C
As of 11:53 PM on Thursday 30 Oct 2014 (Local Time) from KONO Reporting Station
Clear Clear  
Wind Chill: 45°   Ceiling: Unl
Heat Index: 47°   Visibility: 10mi
Dew Point: 41°   Wind: 5mph
Humidity: 80%   Direction: 250°WSW
Pressure: 29.89"   Gusts: NA
Location:  43.79°N, 117.941°W
Report Text: KONO 310553Z AUTO 25004KT 10SM CLR 08/05 A2989 RMK AO2 SLP123 T00830050 10161 20083 56011
Loading
Personal Weather Stations






























Interactive Weather Map
Tropical Storm Tracking
New forecast layout! Learn more

10-Day Weather Forecast

Advertisements
Track Severe Weather on mobile